sensor_id;sensor_type;location;lat;lon;timestamp;P1;durP1;ratioP1;P2;durP2;ratioP2
27857;SDS011;16852;51.446;6.528;2022-11-20T00:00:36;23.00;;;12.50;;
27857;SDS011;16852;51.446;6.528;2022-11-20T00:02:36;23.10;;;12.45;;
27857;SDS011;16852;51.446;6.528;2022-11-20T00:04:37;24.15;;;13.15;;
27857;SDS011;16852;51.446;6.528;2022-11-20T00:06:37;27.35;;;13.70;;
27857;SDS011;16852;51.446;6.528;2022-11-20T00:08:38;27.65;;;13.77;;
27857;SDS011;16852;51.446;6.528;2022-11-20T00:10:40;31.23;;;14.63;;
27857;SDS011;16852;51.446;6.528;2022-11-20T00:12:40;22.60;;;11.93;;
27857;SDS011;16852;51.446;6.528;2022-11-20T00:14:41;19.58;;;11.25;;
27857;SDS011;16852;51.446;6.528;2022-11-20T00:16:42;19.63;;;11.73;;
27857;SDS011;16852;51.446;6.528;2022-11-20T00:18:42;20.13;;;11.13;;
27857;SDS011;16852;51.446;6.528;2022-11-20T00:20:43;18.90;;;11.13;;
27857;SDS011;16852;51.446;6.528;2022-11-20T00:22:44;17.33;;;10.27;;
27857;SDS011;16852;51.446;6.528;2022-11-20T00:24:45;17.15;;;10.73;;
27857;SDS011;16852;51.446;6.528;2022-11-20T00:26:45;18.35;;;10.50;;
27857;SDS011;16852;51.446;6.528;2022-11-20T00:28:52;17.25;;;9.63;;
27857;SDS011;16852;51.446;6.528;2022-11-20T00:31:28;19.52;;;10.50;;
27857;SDS011;16852;51.446;6.528;2022-11-20T00:33:22;16.85;;;10.63;;
27857;SDS011;16852;51.446;6.528;2022-11-20T00:35:23;17.40;;;10.90;;
27857;SDS011;16852;51.446;6.528;2022-11-20T00:37:23;18.58;;;11.00;;
27857;SDS011;16852;51.446;6.528;2022-11-20T00:39:24;17.50;;;10.82;;
27857;SDS011;16852;51.446;6.528;2022-11-20T00:41:25;16.95;;;10.68;;
27857;SDS011;16852;51.446;6.528;2022-11-20T00:45:28;16.58;;;10.02;;
27857;SDS011;16852;51.446;6.528;2022-11-20T00:47:28;16.25;;;10.40;;
27857;SDS011;16852;51.446;6.528;2022-11-20T00:49:29;19.48;;;11.05;;
27857;SDS011;16852;51.446;6.528;2022-11-20T00:51:29;19.45;;;11.30;;
27857;SDS011;16852;51.446;6.528;2022-11-20T00:53:30;18.50;;;10.90;;
27857;SDS011;16852;51.446;6.528;2022-11-20T00:55:31;18.60;;;11.02;;
27857;SDS011;16852;51.446;6.528;2022-11-20T00:57:31;17.13;;;10.43;;
27857;SDS011;16852;51.446;6.528;2022-11-20T00:59:32;17.58;;;10.55;;
27857;SDS011;16852;51.446;6.528;2022-11-20T01:01:32;18.40;;;10.65;;
27857;SDS011;16852;51.446;6.528;2022-11-20T01:03:34;18.13;;;10.88;;
27857;SDS011;16852;51.446;6.528;2022-11-20T01:07:36;17.83;;;10.52;;
27857;SDS011;16852;51.446;6.528;2022-11-20T01:09:37;19.02;;;11.38;;
27857;SDS011;16852;51.446;6.528;2022-11-20T01:11:39;18.83;;;10.98;;
27857;SDS011;16852;51.446;6.528;2022-11-20T01:13:42;18.73;;;10.50;;
27857;SDS011;16852;51.446;6.528;2022-11-20T01:17:45;16.13;;;9.95;;
27857;SDS011;16852;51.446;6.528;2022-11-20T01:19:48;19.05;;;10.82;;
27857;SDS011;16852;51.446;6.528;2022-11-20T01:21:51;17.75;;;10.57;;
27857;SDS011;16852;51.446;6.528;2022-11-20T01:23:53;17.08;;;10.57;;
27857;SDS011;16852;51.446;6.528;2022-11-20T01:25:53;17.80;;;10.80;;
27857;SDS011;16852;51.446;6.528;2022-11-20T01:27:54;18.00;;;10.70;;
27857;SDS011;16852;51.446;6.528;2022-11-20T01:29:55;17.13;;;10.57;;
27857;SDS011;16852;51.446;6.528;2022-11-20T01:31:55;17.75;;;10.70;;
27857;SDS011;16852;51.446;6.528;2022-11-20T01:33:57;19.95;;;10.95;;
27857;SDS011;16852;51.446;6.528;2022-11-20T01:36:02;16.80;;;10.43;;
27857;SDS011;16852;51.446;6.528;2022-11-20T01:38:04;15.27;;;9.73;;
27857;SDS011;16852;51.446;6.528;2022-11-20T01:40:05;18.38;;;10.65;;
27857;SDS011;16852;51.446;6.528;2022-11-20T01:42:06;15.57;;;9.25;;
27857;SDS011;16852;51.446;6.528;2022-11-20T01:46:57;22.83;;;9.85;;
27857;SDS011;16852;51.446;6.528;2022-11-20T01:49:02;16.30;;;10.15;;
27857;SDS011;16852;51.446;6.528;2022-11-20T01:51:12;19.70;;;10.52;;
27857;SDS011;16852;51.446;6.528;2022-11-20T01:53:17;18.45;;;11.15;;
27857;SDS011;16852;51.446;6.528;2022-11-20T01:55:22;17.27;;;10.25;;
27857;SDS011;16852;51.446;6.528;2022-11-20T01:57:27;18.73;;;10.07;;
27857;SDS011;16852;51.446;6.528;2022-11-20T01:59:31;16.42;;;9.90;;
27857;SDS011;16852;51.446;6.528;2022-11-20T02:01:33;17.25;;;10.75;;
27857;SDS011;16852;51.446;6.528;2022-11-20T02:03:34;19.35;;;11.27;;
27857;SDS011;16852;51.446;6.528;2022-11-20T02:05:41;16.00;;;10.00;;
27857;SDS011;16852;51.446;6.528;2022-11-20T02:07:56;18.80;;;10.77;;
27857;SDS011;16852;51.446;6.528;2022-11-20T02:09:58;17.73;;;10.85;;
27857;SDS011;16852;51.446;6.528;2022-11-20T02:11:59;18.73;;;10.85;;
27857;SDS011;16852;51.446;6.528;2022-11-20T02:14:00;18.25;;;11.57;;
27857;SDS011;16852;51.446;6.528;2022-11-20T02:16:01;16.45;;;10.35;;
27857;SDS011;16852;51.446;6.528;2022-11-20T02:18:03;19.00;;;10.27;;
27857;SDS011;16852;51.446;6.528;2022-11-20T02:20:05;18.38;;;11.27;;
27857;SDS011;16852;51.446;6.528;2022-11-20T02:24:22;18.67;;;11.27;;
27857;SDS011;16852;51.446;6.528;2022-11-20T02:26:23;18.92;;;11.82;;
27857;SDS011;16852;51.446;6.528;2022-11-20T02:28:25;18.25;;;11.50;;
27857;SDS011;16852;51.446;6.528;2022-11-20T02:30:26;19.65;;;11.88;;
27857;SDS011;16852;51.446;6.528;2022-11-20T02:32:28;21.48;;;11.13;;
27857;SDS011;16852;51.446;6.528;2022-11-20T02:34:30;19.17;;;12.10;;
27857;SDS011;16852;51.446;6.528;2022-11-20T02:36:32;18.45;;;11.07;;
27857;SDS011;16852;51.446;6.528;2022-11-20T02:38:35;21.77;;;12.32;;
27857;SDS011;16852;51.446;6.528;2022-11-20T02:40:35;21.90;;;12.40;;
27857;SDS011;16852;51.446;6.528;2022-11-20T02:42:36;19.38;;;11.50;;
27857;SDS011;16852;51.446;6.528;2022-11-20T02:44:37;17.60;;;10.77;;
27857;SDS011;16852;51.446;6.528;2022-11-20T02:46:38;20.33;;;11.90;;
27857;SDS011;16852;51.446;6.528;2022-11-20T02:48:38;19.10;;;11.68;;
27857;SDS011;16852;51.446;6.528;2022-11-20T02:50:39;18.38;;;11.05;;
27857;SDS011;16852;51.446;6.528;2022-11-20T02:52:40;18.40;;;12.13;;
27857;SDS011;16852;51.446;6.528;2022-11-20T02:54:41;20.02;;;11.63;;
27857;SDS011;16852;51.446;6.528;2022-11-20T02:56:41;20.20;;;11.00;;
27857;SDS011;16852;51.446;6.528;2022-11-20T02:58:43;19.50;;;11.88;;
27857;SDS011;16852;51.446;6.528;2022-11-20T03:00:43;21.42;;;12.40;;
27857;SDS011;16852;51.446;6.528;2022-11-20T03:02:44;19.20;;;12.35;;
27857;SDS011;16852;51.446;6.528;2022-11-20T03:04:45;18.00;;;11.60;;
27857;SDS011;16852;51.446;6.528;2022-11-20T03:06:45;20.95;;;12.77;;
27857;SDS011;16852;51.446;6.528;2022-11-20T03:08:46;20.27;;;12.18;;
27857;SDS011;16852;51.446;6.528;2022-11-20T03:10:47;21.58;;;13.68;;
27857;SDS011;16852;51.446;6.528;2022-11-20T03:12:47;19.38;;;12.25;;
27857;SDS011;16852;51.446;6.528;2022-11-20T03:14:53;21.17;;;12.90;;
27857;SDS011;16852;51.446;6.528;2022-11-20T03:16:53;21.70;;;12.57;;
27857;SDS011;16852;51.446;6.528;2022-11-20T03:18:55;20.90;;;12.82;;
27857;SDS011;16852;51.446;6.528;2022-11-20T03:20:58;21.65;;;12.23;;
27857;SDS011;16852;51.446;6.528;2022-11-20T03:22:59;21.20;;;13.15;;
27857;SDS011;16852;51.446;6.528;2022-11-20T03:25:00;21.35;;;13.23;;
27857;SDS011;16852;51.446;6.528;2022-11-20T03:27:01;20.25;;;11.57;;
27857;SDS011;16852;51.446;6.528;2022-11-20T03:29:02;17.63;;;11.30;;
27857;SDS011;16852;51.446;6.528;2022-11-20T03:31:08;19.38;;;11.75;;
27857;SDS011;16852;51.446;6.528;2022-11-20T03:33:10;19.50;;;12.57;;
27857;SDS011;16852;51.446;6.528;2022-11-20T03:35:11;16.42;;;11.35;;
27857;SDS011;16852;51.446;6.528;2022-11-20T03:37:11;16.67;;;11.15;;
27857;SDS011;16852;51.446;6.528;2022-11-20T03:39:12;18.42;;;11.20;;
27857;SDS011;16852;51.446;6.528;2022-11-20T03:41:14;17.98;;;11.70;;
27857;SDS011;16852;51.446;6.528;2022-11-20T03:43:19;20.77;;;11.68;;
27857;SDS011;16852;51.446;6.528;2022-11-20T03:45:19;20.60;;;13.07;;
27857;SDS011;16852;51.446;6.528;2022-11-20T03:47:20;22.98;;;12.65;;
27857;SDS011;16852;51.446;6.528;2022-11-20T03:49:21;19.55;;;12.23;;
27857;SDS011;16852;51.446;6.528;2022-11-20T03:51:26;22.13;;;13.32;;
27857;SDS011;16852;51.446;6.528;2022-11-20T03:53:28;18.75;;;12.15;;
27857;SDS011;16852;51.446;6.528;2022-11-20T03:55:28;19.35;;;12.57;;
27857;SDS011;16852;51.446;6.528;2022-11-20T03:57:29;20.00;;;11.63;;
27857;SDS011;16852;51.446;6.528;2022-11-20T03:59:29;19.85;;;12.05;;
27857;SDS011;16852;51.446;6.528;2022-11-20T04:01:34;21.50;;;12.05;;
27857;SDS011;16852;51.446;6.528;2022-11-20T04:03:37;19.70;;;11.45;;
27857;SDS011;16852;51.446;6.528;2022-11-20T04:05:39;19.30;;;12.45;;
27857;SDS011;16852;51.446;6.528;2022-11-20T04:07:39;20.50;;;11.68;;
27857;SDS011;16852;51.446;6.528;2022-11-20T04:09:40;21.40;;;11.55;;
27857;SDS011;16852;51.446;6.528;2022-11-20T04:11:40;21.25;;;13.18;;
27857;SDS011;16852;51.446;6.528;2022-11-20T04:13:42;22.15;;;13.00;;
27857;SDS011;16852;51.446;6.528;2022-11-20T04:15:45;21.58;;;12.48;;
27857;SDS011;16852;51.446;6.528;2022-11-20T04:17:46;20.00;;;11.93;;
27857;SDS011;16852;51.446;6.528;2022-11-20T04:19:46;17.42;;;11.32;;
27857;SDS011;16852;51.446;6.528;2022-11-20T04:21:47;22.85;;;12.93;;
27857;SDS011;16852;51.446;6.528;2022-11-20T04:23:48;20.90;;;12.75;;
27857;SDS011;16852;51.446;6.528;2022-11-20T04:25:49;20.60;;;12.57;;
27857;SDS011;16852;51.446;6.528;2022-11-20T04:27:50;21.52;;;12.82;;
27857;SDS011;16852;51.446;6.528;2022-11-20T04:29:50;23.02;;;13.27;;
27857;SDS011;16852;51.446;6.528;2022-11-20T04:31:51;25.92;;;13.18;;
27857;SDS011;16852;51.446;6.528;2022-11-20T04:33:52;19.55;;;11.73;;
27857;SDS011;16852;51.446;6.528;2022-11-20T04:35:52;20.73;;;12.15;;
27857;SDS011;16852;51.446;6.528;2022-11-20T04:37:53;19.48;;;12.38;;
27857;SDS011;16852;51.446;6.528;2022-11-20T04:39:53;21.15;;;12.60;;
27857;SDS011;16852;51.446;6.528;2022-11-20T04:41:54;18.13;;;11.50;;
27857;SDS011;16852;51.446;6.528;2022-11-20T04:44:13;17.42;;;11.35;;
27857;SDS011;16852;51.446;6.528;2022-11-20T04:46:14;19.48;;;11.85;;
27857;SDS011;16852;51.446;6.528;2022-11-20T04:48:15;18.45;;;11.48;;
27857;SDS011;16852;51.446;6.528;2022-11-20T04:50:15;20.02;;;12.60;;
27857;SDS011;16852;51.446;6.528;2022-11-20T04:52:16;20.35;;;12.00;;
27857;SDS011;16852;51.446;6.528;2022-11-20T04:54:16;21.52;;;12.93;;
27857;SDS011;16852;51.446;6.528;2022-11-20T04:56:17;19.40;;;11.88;;
27857;SDS011;16852;51.446;6.528;2022-11-20T04:58:18;20.85;;;11.82;;
27857;SDS011;16852;51.446;6.528;2022-11-20T05:00:18;16.83;;;11.32;;
27857;SDS011;16852;51.446;6.528;2022-11-20T05:02:19;18.63;;;11.40;;
27857;SDS011;16852;51.446;6.528;2022-11-20T05:04:20;20.75;;;12.02;;
27857;SDS011;16852;51.446;6.528;2022-11-20T05:06:21;21.52;;;12.20;;
27857;SDS011;16852;51.446;6.528;2022-11-20T05:08:22;22.50;;;12.43;;
27857;SDS011;16852;51.446;6.528;2022-11-20T05:10:23;20.48;;;12.20;;
27857;SDS011;16852;51.446;6.528;2022-11-20T05:12:24;19.97;;;12.50;;
27857;SDS011;16852;51.446;6.528;2022-11-20T05:14:24;19.95;;;12.55;;
27857;SDS011;16852;51.446;6.528;2022-11-20T05:16:25;17.63;;;11.02;;
27857;SDS011;16852;51.446;6.528;2022-11-20T05:18:26;18.95;;;11.35;;
27857;SDS011;16852;51.446;6.528;2022-11-20T05:20:26;17.13;;;10.50;;
27857;SDS011;16852;51.446;6.528;2022-11-20T05:22:27;18.08;;;11.70;;
27857;SDS011;16852;51.446;6.528;2022-11-20T05:24:27;18.17;;;11.45;;
27857;SDS011;16852;51.446;6.528;2022-11-20T05:26:28;18.27;;;11.75;;
27857;SDS011;16852;51.446;6.528;2022-11-20T05:28:29;17.55;;;11.00;;
27857;SDS011;16852;51.446;6.528;2022-11-20T05:30:30;17.53;;;10.97;;
27857;SDS011;16852;51.446;6.528;2022-11-20T05:32:31;15.80;;;10.52;;
27857;SDS011;16852;51.446;6.528;2022-11-20T05:34:31;18.75;;;11.43;;
27857;SDS011;16852;51.446;6.528;2022-11-20T05:36:32;16.83;;;10.60;;
27857;SDS011;16852;51.446;6.528;2022-11-20T05:38:33;18.23;;;11.65;;
27857;SDS011;16852;51.446;6.528;2022-11-20T05:40:34;17.98;;;10.32;;
27857;SDS011;16852;51.446;6.528;2022-11-20T05:42:35;18.50;;;11.32;;
27857;SDS011;16852;51.446;6.528;2022-11-20T05:44:35;18.35;;;11.38;;
27857;SDS011;16852;51.446;6.528;2022-11-20T05:46:36;18.63;;;10.75;;
27857;SDS011;16852;51.446;6.528;2022-11-20T05:48:37;19.55;;;11.25;;
27857;SDS011;16852;51.446;6.528;2022-11-20T05:50:38;17.55;;;11.10;;
27857;SDS011;16852;51.446;6.528;2022-11-20T05:52:39;18.55;;;10.68;;
27857;SDS011;16852;51.446;6.528;2022-11-20T05:54:39;19.63;;;11.75;;
27857;SDS011;16852;51.446;6.528;2022-11-20T05:56:40;17.90;;;11.35;;
27857;SDS011;16852;51.446;6.528;2022-11-20T05:58:41;22.00;;;11.98;;
27857;SDS011;16852;51.446;6.528;2022-11-20T06:00:42;17.52;;;11.48;;
27857;SDS011;16852;51.446;6.528;2022-11-20T06:02:43;19.15;;;11.75;;
27857;SDS011;16852;51.446;6.528;2022-11-20T06:04:43;19.05;;;11.20;;
27857;SDS011;16852;51.446;6.528;2022-11-20T06:06:44;19.80;;;12.10;;
27857;SDS011;16852;51.446;6.528;2022-11-20T06:08:44;19.00;;;11.68;;
27857;SDS011;16852;51.446;6.528;2022-11-20T06:10:45;18.02;;;10.77;;
27857;SDS011;16852;51.446;6.528;2022-11-20T06:12:46;19.98;;;12.25;;
27857;SDS011;16852;51.446;6.528;2022-11-20T06:14:46;19.27;;;12.15;;
27857;SDS011;16852;51.446;6.528;2022-11-20T06:16:47;19.45;;;11.63;;
27857;SDS011;16852;51.446;6.528;2022-11-20T06:18:47;17.65;;;11.32;;
27857;SDS011;16852;51.446;6.528;2022-11-20T06:20:48;19.30;;;11.73;;
27857;SDS011;16852;51.446;6.528;2022-11-20T06:22:49;18.95;;;11.85;;
27857;SDS011;16852;51.446;6.528;2022-11-20T06:24:49;18.60;;;11.57;;
27857;SDS011;16852;51.446;6.528;2022-11-20T06:26:50;16.83;;;10.93;;
27857;SDS011;16852;51.446;6.528;2022-11-20T06:28:51;19.38;;;10.95;;
27857;SDS011;16852;51.446;6.528;2022-11-20T06:30:52;19.73;;;12.07;;
27857;SDS011;16852;51.446;6.528;2022-11-20T06:32:53;20.60;;;12.20;;
27857;SDS011;16852;51.446;6.528;2022-11-20T06:34:53;18.30;;;11.50;;
27857;SDS011;16852;51.446;6.528;2022-11-20T06:36:54;19.40;;;11.68;;
27857;SDS011;16852;51.446;6.528;2022-11-20T06:38:54;18.92;;;11.98;;
27857;SDS011;16852;51.446;6.528;2022-11-20T06:40:55;21.77;;;13.65;;
27857;SDS011;16852;51.446;6.528;2022-11-20T06:42:55;24.08;;;14.80;;
27857;SDS011;16852;51.446;6.528;2022-11-20T06:44:56;25.10;;;14.68;;
27857;SDS011;16852;51.446;6.528;2022-11-20T06:46:57;21.92;;;13.57;;
27857;SDS011;16852;51.446;6.528;2022-11-20T06:48:57;23.33;;;13.35;;
27857;SDS011;16852;51.446;6.528;2022-11-20T06:50:58;20.85;;;12.75;;
27857;SDS011;16852;51.446;6.528;2022-11-20T06:53:02;22.08;;;13.50;;
27857;SDS011;16852;51.446;6.528;2022-11-20T06:55:04;22.65;;;12.50;;
27857;SDS011;16852;51.446;6.528;2022-11-20T06:57:05;18.77;;;11.85;;
27857;SDS011;16852;51.446;6.528;2022-11-20T06:59:06;19.05;;;11.77;;
27857;SDS011;16852;51.446;6.528;2022-11-20T07:01:08;20.35;;;12.30;;
27857;SDS011;16852;51.446;6.528;2022-11-20T07:03:11;16.55;;;11.02;;
27857;SDS011;16852;51.446;6.528;2022-11-20T07:05:12;22.67;;;12.80;;
27857;SDS011;16852;51.446;6.528;2022-11-20T07:07:13;18.40;;;11.77;;
27857;SDS011;16852;51.446;6.528;2022-11-20T07:09:14;19.02;;;12.60;;
27857;SDS011;16852;51.446;6.528;2022-11-20T07:11:14;21.85;;;11.82;;
27857;SDS011;16852;51.446;6.528;2022-11-20T07:13:15;18.98;;;12.13;;
27857;SDS011;16852;51.446;6.528;2022-11-20T07:15:15;19.58;;;12.55;;
27857;SDS011;16852;51.446;6.528;2022-11-20T07:17:16;18.48;;;11.95;;
27857;SDS011;16852;51.446;6.528;2022-11-20T07:19:17;20.05;;;12.55;;
27857;SDS011;16852;51.446;6.528;2022-11-20T07:21:18;20.10;;;12.13;;
27857;SDS011;16852;51.446;6.528;2022-11-20T07:23:18;19.10;;;11.18;;
27857;SDS011;16852;51.446;6.528;2022-11-20T07:25:19;19.05;;;12.63;;
27857;SDS011;16852;51.446;6.528;2022-11-20T07:27:19;16.55;;;11.02;;
27857;SDS011;16852;51.446;6.528;2022-11-20T07:29:20;17.63;;;12.02;;
27857;SDS011;16852;51.446;6.528;2022-11-20T07:31:20;18.05;;;10.85;;
27857;SDS011;16852;51.446;6.528;2022-11-20T07:33:21;20.08;;;11.80;;
27857;SDS011;16852;51.446;6.528;2022-11-20T07:35:22;20.13;;;12.70;;
27857;SDS011;16852;51.446;6.528;2022-11-20T07:37:25;19.50;;;12.15;;
27857;SDS011;16852;51.446;6.528;2022-11-20T07:39:26;18.63;;;12.07;;
27857;SDS011;16852;51.446;6.528;2022-11-20T07:41:26;17.08;;;10.77;;
27857;SDS011;16852;51.446;6.528;2022-11-20T07:43:27;17.52;;;11.65;;
27857;SDS011;16852;51.446;6.528;2022-11-20T07:45:28;18.00;;;10.93;;
27857;SDS011;16852;51.446;6.528;2022-11-20T07:47:28;20.25;;;12.50;;
27857;SDS011;16852;51.446;6.528;2022-11-20T07:49:34;17.65;;;11.05;;
27857;SDS011;16852;51.446;6.528;2022-11-20T07:51:35;19.77;;;11.88;;
27857;SDS011;16852;51.446;6.528;2022-11-20T07:53:35;18.58;;;11.68;;
27857;SDS011;16852;51.446;6.528;2022-11-20T07:55:36;23.48;;;14.35;;
27857;SDS011;16852;51.446;6.528;2022-11-20T07:57:36;17.67;;;11.75;;
27857;SDS011;16852;51.446;6.528;2022-11-20T07:59:37;15.70;;;11.00;;
27857;SDS011;16852;51.446;6.528;2022-11-20T08:01:39;19.67;;;11.85;;
27857;SDS011;16852;51.446;6.528;2022-11-20T08:03:40;16.85;;;11.07;;
27857;SDS011;16852;51.446;6.528;2022-11-20T08:05:40;19.88;;;11.90;;
27857;SDS011;16852;51.446;6.528;2022-11-20T08:07:42;17.65;;;11.90;;
27857;SDS011;16852;51.446;6.528;2022-11-20T08:09:43;18.98;;;11.38;;
27857;SDS011;16852;51.446;6.528;2022-11-20T08:11:44;19.42;;;11.18;;
27857;SDS011;16852;51.446;6.528;2022-11-20T08:14:03;18.77;;;12.38;;
27857;SDS011;16852;51.446;6.528;2022-11-20T08:16:13;17.77;;;11.40;;
27857;SDS011;16852;51.446;6.528;2022-11-20T08:18:13;17.95;;;11.80;;
27857;SDS011;16852;51.446;6.528;2022-11-20T08:20:14;18.73;;;11.25;;
27857;SDS011;16852;51.446;6.528;2022-11-20T08:22:15;18.40;;;11.27;;
27857;SDS011;16852;51.446;6.528;2022-11-20T08:24:17;18.33;;;11.55;;
27857;SDS011;16852;51.446;6.528;2022-11-20T08:26:18;16.92;;;11.50;;
27857;SDS011;16852;51.446;6.528;2022-11-20T08:28:18;19.08;;;11.70;;
27857;SDS011;16852;51.446;6.528;2022-11-20T08:30:19;19.92;;;12.43;;
27857;SDS011;16852;51.446;6.528;2022-11-20T08:32:20;22.05;;;13.20;;
27857;SDS011;16852;51.446;6.528;2022-11-20T08:34:20;20.02;;;13.00;;
27857;SDS011;16852;51.446;6.528;2022-11-20T08:36:21;20.45;;;12.73;;
27857;SDS011;16852;51.446;6.528;2022-11-20T08:38:22;18.43;;;12.07;;
27857;SDS011;16852;51.446;6.528;2022-11-20T08:40:23;19.92;;;12.48;;
27857;SDS011;16852;51.446;6.528;2022-11-20T08:42:24;20.38;;;12.68;;
27857;SDS011;16852;51.446;6.528;2022-11-20T08:44:24;18.85;;;12.52;;
27857;SDS011;16852;51.446;6.528;2022-11-20T08:46:26;19.60;;;12.43;;
27857;SDS011;16852;51.446;6.528;2022-11-20T08:48:30;20.73;;;13.18;;
27857;SDS011;16852;51.446;6.528;2022-11-20T08:50:31;21.65;;;13.23;;
27857;SDS011;16852;51.446;6.528;2022-11-20T08:52:32;18.50;;;12.35;;
27857;SDS011;16852;51.446;6.528;2022-11-20T08:54:33;20.65;;;13.85;;
27857;SDS011;16852;51.446;6.528;2022-11-20T08:56:33;20.33;;;13.38;;
27857;SDS011;16852;51.446;6.528;2022-11-20T08:58:34;20.45;;;12.77;;
27857;SDS011;16852;51.446;6.528;2022-11-20T09:00:35;20.17;;;13.43;;
27857;SDS011;16852;51.446;6.528;2022-11-20T09:02:35;20.75;;;13.95;;
27857;SDS011;16852;51.446;6.528;2022-11-20T09:04:36;22.65;;;14.27;;
27857;SDS011;16852;51.446;6.528;2022-11-20T09:06:37;20.30;;;12.70;;
27857;SDS011;16852;51.446;6.528;2022-11-20T09:08:37;20.77;;;13.10;;
27857;SDS011;16852;51.446;6.528;2022-11-20T09:10:38;18.55;;;12.27;;
27857;SDS011;16852;51.446;6.528;2022-11-20T09:12:42;23.00;;;13.85;;
27857;SDS011;16852;51.446;6.528;2022-11-20T09:14:42;19.17;;;12.95;;
27857;SDS011;16852;51.446;6.528;2022-11-20T09:16:44;23.05;;;13.20;;
27857;SDS011;16852;51.446;6.528;2022-11-20T09:18:45;16.42;;;11.88;;
27857;SDS011;16852;51.446;6.528;2022-11-20T09:20:46;17.42;;;11.73;;
27857;SDS011;16852;51.446;6.528;2022-11-20T09:22:46;17.98;;;12.23;;
27857;SDS011;16852;51.446;6.528;2022-11-20T09:24:47;19.60;;;12.70;;
27857;SDS011;16852;51.446;6.528;2022-11-20T09:26:49;18.92;;;12.70;;
27857;SDS011;16852;51.446;6.528;2022-11-20T09:28:49;19.25;;;12.43;;
27857;SDS011;16852;51.446;6.528;2022-11-20T09:30:50;21.20;;;13.35;;
27857;SDS011;16852;51.446;6.528;2022-11-20T09:32:50;17.13;;;12.23;;
27857;SDS011;16852;51.446;6.528;2022-11-20T09:34:51;21.08;;;12.63;;
27857;SDS011;16852;51.446;6.528;2022-11-20T09:36:51;21.52;;;13.70;;
27857;SDS011;16852;51.446;6.528;2022-11-20T09:38:52;20.35;;;13.00;;
27857;SDS011;16852;51.446;6.528;2022-11-20T09:40:57;21.42;;;13.50;;
27857;SDS011;16852;51.446;6.528;2022-11-20T09:43:05;22.05;;;13.60;;
27857;SDS011;16852;51.446;6.528;2022-11-20T09:52:01;20.38;;;13.55;;
27857;SDS011;16852;51.446;6.528;2022-11-20T09:54:33;22.45;;;13.43;;
27857;SDS011;16852;51.446;6.528;2022-11-20T09:56:37;21.40;;;13.38;;
27857;SDS011;16852;51.446;6.528;2022-11-20T09:58:42;22.30;;;14.13;;
27857;SDS011;16852;51.446;6.528;2022-11-20T10:00:45;22.65;;;13.95;;
27857;SDS011;16852;51.446;6.528;2022-11-20T10:03:21;25.75;;;15.57;;
27857;SDS011;16852;51.446;6.528;2022-11-20T10:05:19;21.13;;;13.73;;
27857;SDS011;16852;51.446;6.528;2022-11-20T10:09:43;23.75;;;14.77;;
27857;SDS011;16852;51.446;6.528;2022-11-20T10:12:03;23.70;;;15.07;;
27857;SDS011;16852;51.446;6.528;2022-11-20T10:20:46;24.17;;;14.40;;
27857;SDS011;16852;51.446;6.528;2022-11-20T10:23:05;24.60;;;15.88;;
27857;SDS011;16852;51.446;6.528;2022-11-20T10:29:39;23.98;;;14.55;;
27857;SDS011;16852;51.446;6.528;2022-11-20T10:31:45;25.90;;;15.32;;
27857;SDS011;16852;51.446;6.528;2022-11-20T10:34:01;27.10;;;16.48;;
27857;SDS011;16852;51.446;6.528;2022-11-20T10:38:29;26.10;;;15.73;;
27857;SDS011;16852;51.446;6.528;2022-11-20T10:40:46;28.20;;;17.25;;
27857;SDS011;16852;51.446;6.528;2022-11-20T10:42:55;31.65;;;17.17;;
27857;SDS011;16852;51.446;6.528;2022-11-20T10:45:02;26.73;;;16.17;;
27857;SDS011;16852;51.446;6.528;2022-11-20T10:47:16;29.20;;;18.00;;
27857;SDS011;16852;51.446;6.528;2022-11-20T10:56:22;26.67;;;16.00;;
27857;SDS011;16852;51.446;6.528;2022-11-20T10:58:38;28.85;;;16.63;;
27857;SDS011;16852;51.446;6.528;2022-11-20T11:00:50;30.85;;;18.48;;
27857;SDS011;16852;51.446;6.528;2022-11-20T11:02:51;34.92;;;19.48;;
27857;SDS011;16852;51.446;6.528;2022-11-20T11:04:54;32.42;;;17.75;;
27857;SDS011;16852;51.446;6.528;2022-11-20T11:06:56;33.83;;;18.60;;
27857;SDS011;16852;51.446;6.528;2022-11-20T11:09:09;38.58;;;19.50;;
27857;SDS011;16852;51.446;6.528;2022-11-20T11:11:22;39.22;;;19.35;;
27857;SDS011;16852;51.446;6.528;2022-11-20T11:13:27;33.45;;;17.85;;
27857;SDS011;16852;51.446;6.528;2022-11-20T11:15:35;39.95;;;19.92;;
27857;SDS011;16852;51.446;6.528;2022-11-20T11:17:38;36.28;;;19.50;;
27857;SDS011;16852;51.446;6.528;2022-11-20T11:19:56;38.55;;;19.63;;
27857;SDS011;16852;51.446;6.528;2022-11-20T11:22:04;39.35;;;20.75;;
27857;SDS011;16852;51.446;6.528;2022-11-20T11:24:25;39.17;;;20.23;;
27857;SDS011;16852;51.446;6.528;2022-11-20T11:26:28;40.35;;;19.70;;
27857;SDS011;16852;51.446;6.528;2022-11-20T11:28:29;45.72;;;20.77;;
27857;SDS011;16852;51.446;6.528;2022-11-20T11:30:40;39.15;;;19.15;;
27857;SDS011;16852;51.446;6.528;2022-11-20T11:32:42;41.53;;;20.92;;
27857;SDS011;16852;51.446;6.528;2022-11-20T11:34:43;35.92;;;18.90;;
27857;SDS011;16852;51.446;6.528;2022-11-20T11:36:55;37.63;;;19.67;;
27857;SDS011;16852;51.446;6.528;2022-11-20T11:38:57;35.38;;;18.00;;
27857;SDS011;16852;51.446;6.528;2022-11-20T11:40:57;38.30;;;19.00;;
27857;SDS011;16852;51.446;6.528;2022-11-20T11:42:59;34.08;;;18.00;;
27857;SDS011;16852;51.446;6.528;2022-11-20T11:45:05;35.28;;;18.05;;
27857;SDS011;16852;51.446;6.528;2022-11-20T11:47:09;36.75;;;17.95;;
27857;SDS011;16852;51.446;6.528;2022-11-20T11:49:21;42.13;;;20.35;;
27857;SDS011;16852;51.446;6.528;2022-11-20T11:51:22;35.65;;;19.33;;
27857;SDS011;16852;51.446;6.528;2022-11-20T11:53:26;38.35;;;20.20;;
27857;SDS011;16852;51.446;6.528;2022-11-20T11:55:38;33.88;;;18.92;;
27857;SDS011;16852;51.446;6.528;2022-11-20T11:57:56;34.08;;;17.65;;
27857;SDS011;16852;51.446;6.528;2022-11-20T12:00:03;43.65;;;20.98;;
27857;SDS011;16852;51.446;6.528;2022-11-20T12:02:05;40.13;;;21.70;;
27857;SDS011;16852;51.446;6.528;2022-11-20T12:07:20;39.83;;;18.48;;
27857;SDS011;16852;51.446;6.528;2022-11-20T12:09:37;39.08;;;20.73;;
27857;SDS011;16852;51.446;6.528;2022-11-20T12:11:55;40.08;;;20.08;;
27857;SDS011;16852;51.446;6.528;2022-11-20T12:14:10;44.90;;;21.95;;
27857;SDS011;16852;51.446;6.528;2022-11-20T12:16:26;42.10;;;21.35;;
27857;SDS011;16852;51.446;6.528;2022-11-20T12:18:27;42.05;;;20.58;;
27857;SDS011;16852;51.446;6.528;2022-11-20T12:20:31;36.95;;;19.92;;
27857;SDS011;16852;51.446;6.528;2022-11-20T12:22:54;39.60;;;20.23;;
27857;SDS011;16852;51.446;6.528;2022-11-20T12:25:04;39.33;;;18.98;;
27857;SDS011;16852;51.446;6.528;2022-11-20T12:27:22;39.53;;;19.98;;
27857;SDS011;16852;51.446;6.528;2022-11-20T12:31:45;35.95;;;19.40;;
27857;SDS011;16852;51.446;6.528;2022-11-20T12:39:16;36.47;;;19.25;;
27857;SDS011;16852;51.446;6.528;2022-11-20T12:54:09;36.25;;;19.23;;
27857;SDS011;16852;51.446;6.528;2022-11-20T13:03:43;29.27;;;15.82;;
27857;SDS011;16852;51.446;6.528;2022-11-20T13:08:13;37.80;;;19.55;;
27857;SDS011;16852;51.446;6.528;2022-11-20T13:10:26;31.38;;;18.02;;
27857;SDS011;16852;51.446;6.528;2022-11-20T13:12:48;31.60;;;18.33;;